Portada
METAR-TAF:

METAR-TAF

Aeropuertos :

Aeropuerto de Hihifo

Wallis, Francia

latitud: 13-14S, longitud: 176-10W, altitud: 23 m

METAR: falta

Hora: 01:33 (13:33 UTC)

Pronóstico

El informe se hizo hace 2 horas y 33 minutos, a las 11:00 UTC
Pronóstico válido del 23 a las 12 UTC al 24 a las 12 UTC
Viento 4 kt del este-noreste
Visibilidad 10 km o más
Nubes dispersas a una altura de 2000 ft
Temporalmente
del 23 a las 12 UTC al 24 a las 06 UTC
Visibilidad: 4000 m
Cielo nuboso a una altura de 1400 ft
Escasas nubes a una altura de 1800 ft, Cumulus congestus.
chaparrones de lluvia
Probabilidad 40% :
Temporalmente
del 23 a las 12 UTC al 23 a las 20 UTC
Visibilidad: 2000 m
Cielo nuboso a una altura de 1200 ft
Nubes dispersas a una altura de 1600 ft, Cumulonimbus.
chaparrones de lluvia

TAF: NLWW 231100Z 2312/2412 07004KT 9999 SCT020 TEMPO 2312/2406 4000 SHRA BKN014 FEW018TCU PROB40 TEMPO 2312/2320 2000 SHRA BKN012 SCT016CB

Observaciones y pronósticos meteorológicos de más de 4000 aeropuertos (mensajes METAR y TAF).

Los puntos amarillos y rojos representan las estaciones disponibles.

Ponga el ratón en el punto deseado para ver el nombre de la estación.

Haga clic para ver las observaciones y los pronósticos meteorológicos.

Para cambiar el mapa : haga clic en los botones verdes con una cruz de color negro para hacer un zoom, en el botón verde con un guión para alejar o en las flechas verdes para mapas adyacentes.


METAR-TAF: